Time;durP1;ratioP1;P1;durP2;ratioP2;P2;SDS_P1;SDS_P2;PMS_P1;PMS_P2;Temp;Humidity;BMP_temperature;BMP_pressure;BME280_temperature;BME280_humidity;BME280_pressure;Samples;Min_cycle;Max_cycle;Signal;HPM_P1;HPM_P2
2021/04/08 00:00:19;;;;;;;36.13;18.13;;;;;;;1.36;73.10;100343.52;126288;1099;104137;-79
2021/04/08 00:03:07;;;;;;;44.73;18.30;;;;;;;1.31;73.17;100338.80;126236;1099;106574;-77
2021/04/08 00:05:38;;;;;;;38.20;18.33;;;;;;;1.27;73.01;100352.33;126277;1099;104229;-78
2021/04/08 00:08:07;;;;;;;34.77;18.27;;;;;;;1.27;73.16;100352.33;126295;1099;104143;-77
2021/04/08 00:10:36;;;;;;;33.03;17.47;;;;;;;1.29;73.34;100356.78;126287;1099;104156;-77
2021/04/08 00:13:05;;;;;;;35.30;18.03;;;;;;;1.33;73.64;100357.92;126204;1098;104630;-78
2021/04/08 00:15:34;;;;;;;34.13;17.93;;;;;;;1.37;73.29;100363.42;126262;1099;104171;-78
2021/04/08 00:18:03;;;;;;;30.20;16.60;;;;;;;1.41;73.71;100364.52;126282;1099;104274;-78
2021/04/08 00:20:32;;;;;;;36.03;17.90;;;;;;;1.43;73.53;100368.09;126232;1099;104171;-78
2021/04/08 00:23:00;;;;;;;34.87;18.27;;;;;;;1.38;73.07;100374.65;126164;1099;104159;-78
2021/04/08 00:25:29;;;;;;;35.80;17.55;;;;;;;1.34;73.12;100388.14;126280;1099;104195;-78
2021/04/08 00:27:58;;;;;;;36.80;18.60;;;;;;;1.30;73.19;100399.07;126282;1098;104150;-78
2021/04/08 00:30:27;;;;;;;41.27;19.50;;;;;;;1.25;73.17;100391.88;126307;1099;104323;-78
2021/04/08 00:32:56;;;;;;;36.90;18.53;;;;;;;1.20;73.40;100393.25;126171;1099;104216;-78
2021/04/08 00:35:25;;;;;;;35.53;17.70;;;;;;;1.17;73.11;100402.45;126307;1096;101903;-78
2021/04/08 00:37:54;;;;;;;34.53;17.77;;;;;;;1.11;73.22;100402.92;126235;1099;104209;-78
2021/04/08 00:40:23;;;;;;;34.07;18.20;;;;;;;1.05;72.93;100400.79;126305;1099;104274;-79
2021/04/08 00:42:52;;;;;;;34.63;17.47;;;;;;;0.97;72.97;100408.80;126226;1099;104204;-78
2021/04/08 00:45:22;;;;;;;32.93;17.93;;;;;;;0.93;73.06;100411.93;126270;1099;104198;-78
2021/04/08 00:47:50;;;;;;;33.47;18.00;;;;;;;0.91;73.54;100419.57;126235;1099;104230;-77
2021/04/08 00:50:20;;;;;;;33.47;17.90;;;;;;;0.90;73.29;100412.59;126294;1098;104159;-78
2021/04/08 00:52:55;;;;;;;32.10;16.80;;;;;;;0.86;73.74;100416.66;126267;1099;104146;-78
2021/04/08 00:55:28;;;;;;;37.07;17.17;;;;;;;0.83;73.69;100420.70;126298;1099;104149;-79
2021/04/08 00:58:00;;;;;;;33.83;16.87;;;;;;;0.85;73.66;100424.30;126274;1097;104245;-78
2021/04/08 01:00:30;;;;;;;34.00;17.47;;;;;;;0.82;73.46;100422.37;126281;1099;104152;-78
2021/04/08 01:03:02;;;;;;;36.23;17.83;;;;;;;0.77;73.55;100422.84;126225;1099;104162;-77
2021/04/08 01:05:31;;;;;;;35.50;17.47;;;;;;;0.74;73.26;100427.78;126324;1099;104166;-79
2021/04/08 01:07:59;;;;;;;34.70;17.83;;;;;;;0.70;73.00;100430.14;126305;1098;104402;-79
2021/04/08 01:10:29;;;;;;;34.00;18.63;;;;;;;0.67;73.74;100432.49;126185;1099;104159;-78
2021/04/08 01:13:02;;;;;;;32.13;17.37;;;;;;;0.64;73.16;100427.10;126179;1099;104297;-78
2021/04/08 01:15:34;;;;;;;34.57;17.03;;;;;;;0.60;73.59;100424.17;126287;1099;104280;-79
2021/04/08 01:18:10;;;;;;;34.33;17.53;;;;;;;0.60;73.81;100431.92;126286;1098;104143;-78
2021/04/08 01:21:03;;;;;;;36.57;18.10;;;;;;;0.56;73.79;100428.19;126300;1098;104297;-78
2021/04/08 01:23:58;;;;;;;37.90;18.73;;;;;;;0.55;73.44;100423.84;126205;1096;104150;-79
2021/04/08 01:26:53;;;;;;;33.70;18.47;;;;;;;0.54;74.12;100424.61;126319;1096;104198;-79
2021/04/08 01:29:29;;;;;;;;;;;;;;;0.60;73.70;100432.81;126270;1099;104172;-78
2021/04/08 01:32:02;;;;;;;35.33;19.30;;;;;;;0.63;74.25;100433.04;126299;1096;104142;-78
2021/04/08 01:34:34;;;;;;;34.53;17.10;;;;;;;0.70;74.00;100442.12;126275;1097;104190;-78
2021/04/08 01:37:08;;;;;;;36.47;17.40;;;;;;;0.76;73.99;100444.28;126259;1099;104169;-78
2021/04/08 01:39:43;;;;;;;36.50;17.77;;;;;;;0.81;74.31;100445.50;126305;1099;104146;-78
2021/04/08 01:42:16;;;;;;;32.23;17.33;;;;;;;0.84;73.92;100443.15;126240;1099;104142;-78
2021/04/08 01:44:47;;;;;;;34.87;16.63;;;;;;;0.89;74.35;100445.30;126268;1096;104152;-78
2021/04/08 01:47:16;;;;;;;31.43;16.67;;;;;;;0.91;74.15;100447.11;126329;1096;104152;-78
2021/04/08 01:49:48;;;;;;;35.17;16.90;;;;;;;0.92;74.12;100457.55;126287;1096;104143;-79
2021/04/08 01:52:19;;;;;;;35.67;17.73;;;;;;;0.90;73.87;100456.52;126212;1099;104159;-78
2021/04/08 01:54:56;;;;;;;36.90;17.07;;;;;;;0.92;74.02;100461.80;126228;1096;104168;-79
2021/04/08 01:57:42;;;;;;;35.77;18.40;;;;;;;0.92;73.91;100467.88;126337;1099;104149;-78
2021/04/08 02:00:21;;;;;;;31.43;17.00;;;;;;;0.92;74.07;100480.80;126315;1099;104293;-79
2021/04/08 02:02:58;;;;;;;31.97;16.37;;;;;;;0.93;73.83;100469.66;126228;1099;104191;-78
2021/04/08 02:05:28;;;;;;;30.33;15.97;;;;;;;0.94;74.27;100475.75;126253;1096;105358;-78
2021/04/08 02:07:59;;;;;;;31.50;15.50;;;;;;;0.94;73.97;100473.16;126320;1096;104261;-78
2021/04/08 02:10:34;;;;;;;33.37;17.10;;;;;;;0.93;74.05;100471.36;126216;1099;104264;-79
2021/04/08 02:13:09;;;;;;;31.80;16.03;;;;;;;0.93;74.01;100469.66;126189;1099;104287;-78
2021/04/08 02:15:40;;;;;;;32.25;15.75;;;;;;;0.94;73.85;100468.89;126079;1098;104178;-79
2021/04/08 02:18:14;;;;;;;31.90;14.77;;;;;;;0.96;74.15;100476.75;126184;1099;104293;-78
2021/04/08 02:20:45;;;;;;;33.25;16.17;;;;;;;0.95;74.18;100478.45;126219;1099;104262;-79
2021/04/08 02:23:21;;;;;;;33.80;15.37;;;;;;;0.94;74.00;100481.80;126191;1099;104205;-78
2021/04/08 02:25:51;;;;;;;31.20;15.53;;;;;;;0.95;74.06;100490.45;126177;1099;104335;-78
2021/04/08 02:28:21;;;;;;;35.60;16.50;;;;;;;0.90;74.07;100495.27;126192;1099;104299;-79
2021/04/08 02:30:52;;;;;;;33.17;15.60;;;;;;;0.90;74.26;100497.86;126200;1099;104133;-78
2021/04/08 02:33:23;;;;;;;34.13;16.03;;;;;;;0.88;73.81;100512.36;126146;1099;104376;-79
2021/04/08 02:35:52;;;;;;;29.63;15.13;;;;;;;0.82;73.70;100509.31;125253;1099;104998;-79
2021/04/08 02:38:23;;;;;;;29.27;14.77;;;;;;;0.72;73.91;100510.32;125284;1099;104220;-78
2021/04/08 02:40:53;;;;;;;30.50;15.00;;;;;;;0.68;74.21;100516.91;125254;1099;104386;-78
2021/04/08 02:43:25;;;;;;;34.50;16.05;;;;;;;0.66;74.37;100523.66;126143;1099;104296;-78
2021/04/08 02:45:54;;;;;;;33.80;16.87;;;;;;;0.68;73.91;100532.41;126100;1098;104268;-78
2021/04/08 02:48:25;;;;;;;34.40;16.63;;;;;;;0.70;74.58;100525.70;126222;1099;104201;-78
2021/04/08 02:50:56;;;;;;;34.17;17.20;;;;;;;0.71;74.39;100529.17;126075;1099;104817;-78
2021/04/08 02:53:36;;;;;;;31.03;15.47;;;;;;;0.71;74.37;100524.89;126125;1098;104140;-78
2021/04/08 02:56:13;;;;;;;30.13;15.70;;;;;;;0.65;74.33;100533.88;126149;1098;104252;-79
2021/04/08 02:58:45;;;;;;;31.47;15.70;;;;;;;0.58;74.41;100535.10;126165;1099;104165;-79
2021/04/08 03:01:17;;;;;;;30.33;15.27;;;;;;;0.52;74.25;100544.97;126072;1099;104287;-78
2021/04/08 03:03:52;;;;;;;33.50;18.50;;;;;;;0.48;74.11;100550.66;126182;1099;104425;-79
2021/04/08 03:06:22;;;;;;;32.00;17.33;;;;;;;0.42;74.26;100553.70;126095;1099;104216;-78
2021/04/08 03:08:54;;;;;;;33.57;16.53;;;;;;;0.38;74.14;100559.39;126313;1096;104185;-78
2021/04/08 03:11:29;;;;;;;36.10;17.47;;;;;;;0.41;74.46;100566.48;126311;1099;104166;-78
2021/04/08 03:14:01;;;;;;;36.73;17.70;;;;;;;0.48;75.04;100572.24;126224;1096;104274;-79
2021/04/08 03:16:36;;;;;;;35.73;17.73;;;;;;;0.48;74.35;100582.57;126250;1096;104344;-79
2021/04/08 03:19:08;;;;;;;35.37;18.60;;;;;;;0.44;73.99;100588.27;126272;1099;104207;-79
2021/04/08 03:21:37;;;;;;;36.97;18.67;;;;;;;0.40;74.35;100580.16;126231;1099;104143;-79
2021/04/08 03:24:07;;;;;;;31.93;17.03;;;;;;;0.43;74.76;100590.73;126216;1098;104181;-79
2021/04/08 03:26:37;;;;;;;36.67;17.80;;;;;;;0.41;74.42;100592.30;126253;1099;104219;-79
2021/04/08 03:29:09;;;;;;;37.50;17.43;;;;;;;0.38;74.88;100582.63;126262;1099;104192;-79
2021/04/08 03:31:42;;;;;;;33.10;17.93;;;;;;;0.37;74.95;100574.77;126028;1099;104156;-79
2021/04/08 03:34:12;;;;;;;37.03;17.43;;;;;;;0.39;74.42;100571.53;126266;1099;104226;-79
2021/04/08 03:36:41;;;;;;;37.13;18.47;;;;;;;0.44;74.98;100582.21;126036;1099;104361;-79
2021/04/08 03:39:11;;;;;;;36.07;18.27;;;;;;;0.45;74.91;100587.50;126216;1099;104210;-78
2021/04/08 03:41:43;;;;;;;34.97;17.23;;;;;;;0.48;74.65;100587.73;126257;1099;104133;-78
2021/04/08 03:44:14;;;;;;;37.17;17.07;;;;;;;0.50;75.00;100590.44;126257;1099;104252;-79
2021/04/08 03:46:46;;;;;;;34.73;17.30;;;;;;;0.54;74.98;100593.34;126263;1099;104137;-79
2021/04/08 03:49:16;;;;;;;38.20;18.87;;;;;;;0.56;74.43;100600.31;126273;1099;104127;-79
2021/04/08 03:51:47;;;;;;;37.33;18.93;;;;;;;0.58;74.77;100603.90;126232;1099;104168;-79
2021/04/08 03:54:17;;;;;;;36.77;18.50;;;;;;;0.61;74.63;100604.14;126049;1099;104267;-79
2021/04/08 03:56:48;;;;;;;37.20;17.73;;;;;;;0.59;74.34;100610.88;126028;1099;104143;-79
2021/04/08 03:59:19;;;;;;;36.47;17.43;;;;;;;0.60;74.71;100615.27;126225;1099;104284;-79
2021/04/08 04:01:49;;;;;;;35.10;17.23;;;;;;;0.63;75.02;100615.52;126207;1099;104153;-79
2021/04/08 04:04:19;;;;;;;34.50;16.67;;;;;;;0.62;74.25;100627.50;126282;1099;104155;-79
2021/04/08 04:06:51;;;;;;;34.87;17.07;;;;;;;0.63;74.53;100625.84;126205;1099;104153;-79
2021/04/08 04:09:22;;;;;;;40.00;18.33;;;;;;;0.66;74.59;100623.49;126285;1099;104188;-78
2021/04/08 04:11:51;;;;;;;33.10;16.27;;;;;;;0.68;74.44;100632.25;126288;1099;104150;-77
2021/04/08 04:14:24;;;;;;;37.67;17.03;;;;;;;0.74;74.92;100640.47;126201;1099;104214;-77
2021/04/08 04:16:55;;;;;;;37.17;16.63;;;;;;;0.82;74.44;100638.48;126171;1096;104133;-78
2021/04/08 04:19:25;;;;;;;34.27;16.30;;;;;;;0.88;74.64;100646.70;126201;1099;104765;-78
2021/04/08 04:21:54;;;;;;;32.03;15.50;;;;;;;0.95;74.58;100648.06;126195;1096;104193;-78
2021/04/08 04:24:23;;;;;;;34.93;16.37;;;;;;;1.02;74.48;100650.34;126118;1099;104204;-78
2021/04/08 04:26:52;;;;;;;35.03;17.13;;;;;;;1.10;74.47;100651.81;126046;1099;104281;-78
2021/04/08 04:29:21;;;;;;;35.20;15.10;;;;;;;1.18;74.39;100658.45;126082;1099;104143;-78
2021/04/08 04:31:59;;;;;;;31.83;15.87;;;;;;;1.22;74.24;100657.02;125986;1099;104411;-78
2021/04/08 04:34:28;;;;;;;35.97;17.07;;;;;;;1.22;74.13;100663.08;125909;1099;104301;-78
2021/04/08 04:36:56;;;;;;;34.70;16.90;;;;;;;1.23;73.94;100669.14;125831;1098;104338;-78
2021/04/08 04:39:25;;;;;;;33.70;15.87;;;;;;;1.22;73.71;100664.78;126008;1098;104367;-78
2021/04/08 04:42:04;;;;;;;32.80;15.53;;;;;;;1.21;74.00;100673.31;126126;1099;104146;-78
2021/04/08 04:44:34;;;;;;;35.47;16.40;;;;;;;1.24;74.32;100668.37;126004;1099;104146;-78
2021/04/08 04:47:04;;;;;;;32.17;16.70;;;;;;;1.25;74.08;100671.07;125677;1099;104290;-75
2021/04/08 04:49:32;;;;;;;30.83;15.80;;;;;;;1.28;74.10;100673.00;125854;1099;104290;-76
2021/04/08 04:52:01;;;;;;;35.77;17.77;;;;;;;1.28;74.18;100670.41;125811;1099;104284;-76
2021/04/08 04:54:30;;;;;;;36.80;18.05;;;;;;;1.35;74.44;100671.77;125844;1099;104447;-75
2021/04/08 04:56:59;;;;;;;33.67;17.80;;;;;;;1.41;74.34;100669.64;125682;1099;104283;-77
2021/04/08 04:59:28;;;;;;;38.83;19.43;;;;;;;1.51;74.38;100673.80;125758;1099;104415;-76
2021/04/08 05:01:57;;;;;;;34.45;17.75;;;;;;;1.56;74.14;100672.48;125797;1099;104402;-76
2021/04/08 05:04:26;;;;;;;34.87;17.43;;;;;;;1.60;73.93;100679.66;125776;1099;104329;-76
2021/04/08 05:06:55;;;;;;;39.80;19.10;;;;;;;1.67;74.15;100684.52;125787;1099;104200;-77
2021/04/08 05:09:27;;;;;;;37.27;17.50;;;;;;;1.72;73.93;100684.86;125246;1099;102199;-77
2021/04/08 05:11:56;;;;;;;35.97;17.73;;;;;;;1.73;73.80;100690.15;125962;1099;104332;-77
2021/04/08 05:14:25;;;;;;;31.43;16.40;;;;;;;1.80;74.28;100697.55;125885;1099;104194;-77
2021/04/08 05:16:54;;;;;;;33.63;16.43;;;;;;;1.83;74.43;100688.23;125203;1099;104153;-77
2021/04/08 05:19:31;;;;;;;30.23;14.67;;;;;;;1.85;74.10;100697.00;125826;1099;106918;-77
2021/04/08 05:22:00;;;;;;;28.20;14.63;;;;;;;1.88;73.73;100698.12;125218;1099;104147;-77
2021/04/08 05:24:31;;;;;;;31.53;14.97;;;;;;;1.93;73.85;100701.05;125183;1099;104245;-77
2021/04/08 05:27:01;;;;;;;26.90;14.33;;;;;;;2.06;74.47;100702.87;125216;1099;104283;-78
2021/04/08 05:29:30;;;;;;;31.60;15.50;;;;;;;2.18;74.32;100702.83;124990;1099;104211;-78
2021/04/08 05:31:59;;;;;;;29.23;14.53;;;;;;;2.23;74.16;100711.83;125855;1099;104149;-78
2021/04/08 05:34:30;;;;;;;32.10;14.97;;;;;;;2.26;74.18;100706.88;125876;1099;104149;-78
2021/04/08 05:36:59;;;;;;;31.97;14.80;;;;;;;2.27;73.83;100712.16;125931;1099;104210;-78
2021/04/08 05:39:29;;;;;;;29.57;14.43;;;;;;;2.30;74.29;100709.79;125757;1099;104264;-77
2021/04/08 05:41:58;;;;;;;28.30;14.43;;;;;;;2.33;73.87;100706.53;125720;1099;104191;-78
2021/04/08 05:44:27;;;;;;;33.10;14.73;;;;;;;2.41;73.99;100707.08;125694;1099;104300;-78
2021/04/08 05:46:56;;;;;;;32.10;15.50;;;;;;;2.54;73.99;100709.77;125758;1099;104284;-76
2021/04/08 05:49:25;;;;;;;30.15;15.80;;;;;;;2.62;74.36;100703.43;125677;1099;104178;-77
2021/04/08 05:51:54;;;;;;;31.50;15.27;;;;;;;2.70;73.70;100712.63;125669;1099;104257;-77
2021/04/08 05:54:22;;;;;;;30.57;15.47;;;;;;;2.77;74.05;100713.06;125635;1099;104603;-77
2021/04/08 05:56:51;;;;;;;31.70;16.13;;;;;;;2.85;73.26;100714.49;125900;1097;104172;-77
2021/04/08 05:59:20;;;;;;;35.83;16.13;;;;;;;2.94;73.82;100716.84;125633;1099;104161;-77
2021/04/08 06:01:49;;;;;;;34.40;15.67;;;;;;;3.03;74.32;100702.81;125715;1099;104281;-78
2021/04/08 06:04:18;;;;;;;30.87;14.93;;;;;;;3.15;74.08;100704.48;125724;1096;104168;-78
2021/04/08 06:06:49;;;;;;;29.73;14.60;;;;;;;3.24;73.85;100706.00;125788;1099;104153;-77
2021/04/08 06:09:18;;;;;;;36.87;15.57;;;;;;;3.32;73.71;100703.92;125820;1098;105480;-77
2021/04/08 06:11:51;;;;;;;28.93;14.37;;;;;;;3.40;74.22;100700.14;125966;1099;104172;-77
2021/04/08 06:14:20;;;;;;;32.10;14.70;;;;;;;3.48;73.87;100703.26;125893;1099;104287;-77
2021/04/08 06:16:49;;;;;;;30.33;14.40;;;;;;;3.56;73.96;100703.77;125848;1099;104168;-77
2021/04/08 06:19:19;;;;;;;32.23;14.27;;;;;;;3.65;73.37;100708.69;125818;1099;104197;-77
2021/04/08 06:21:48;;;;;;;29.63;13.80;;;;;;;3.75;73.79;100709.38;125952;1096;104194;-76
2021/04/08 06:24:17;;;;;;;29.27;13.20;;;;;;;3.89;72.94;100712.88;125955;1099;104265;-77
2021/04/08 06:26:46;;;;;;;27.23;12.60;;;;;;;3.99;73.17;100717.00;125935;1099;104233;-78
2021/04/08 06:29:15;;;;;;;31.57;14.23;;;;;;;4.06;72.78;100715.70;126053;1096;104150;-78
2021/04/08 06:31:44;;;;;;;31.10;13.95;;;;;;;4.14;73.79;100720.61;126047;1099;104178;-78
2021/04/08 06:34:13;;;;;;;28.10;13.50;;;;;;;4.22;73.33;100720.18;126079;1099;104206;-77
2021/04/08 06:36:42;;;;;;;25.47;12.40;;;;;;;4.34;73.85;100718.37;126063;1099;104300;-77
2021/04/08 06:39:11;;;;;;;25.40;12.60;;;;;;;4.45;72.89;100714.75;125863;1099;104376;-77
2021/04/08 06:41:41;;;;;;;25.30;11.57;;;;;;;4.58;72.64;100726.84;125898;1096;104162;-77
2021/04/08 06:44:13;;;;;;;27.77;11.70;;;;;;;4.67;72.69;100722.23;126050;1096;104249;-77
2021/04/08 06:46:44;;;;;;;23.80;9.93;;;;;;;4.78;72.47;100728.07;125973;1099;104264;-77
2021/04/08 06:49:28;;;;;;;24.00;10.33;;;;;;;4.90;72.83;100727.95;125935;1096;104139;-76
2021/04/08 06:52:00;;;;;;;21.77;9.45;;;;;;;4.96;72.80;100724.84;125975;1099;104863;-77
2021/04/08 06:54:29;;;;;;;20.17;8.97;;;;;;;5.03;72.55;100725.31;125922;1099;104156;-77
2021/04/08 06:56:58;;;;;;;21.10;8.07;;;;;;;5.12;72.18;100718.87;125880;1099;104267;-77
2021/04/08 06:59:28;;;;;;;20.47;8.67;;;;;;;5.21;71.71;100722.92;125954;1098;104175;-77
2021/04/08 07:01:58;;;;;;;18.97;8.03;;;;;;;5.34;72.56;100721.95;125880;1096;104808;-78
2021/04/08 07:04:27;;;;;;;22.50;8.10;;;;;;;5.47;71.65;100727.89;125733;1096;104163;-77
2021/04/08 07:06:57;;;;;;;20.23;8.03;;;;;;;5.58;72.35;100719.03;125748;1099;104197;-77
2021/04/08 07:09:26;;;;;;;17.65;8.70;;;;;;;5.71;72.50;100724.14;125802;1099;104238;-76
2021/04/08 07:11:55;;;;;;;17.00;7.70;;;;;;;5.88;71.61;100739.87;125965;1099;104146;-77
2021/04/08 07:14:26;;;;;;;21.47;9.00;;;;;;;5.98;71.38;100733.52;125703;1099;104419;-77
2021/04/08 07:16:56;;;;;;;18.83;7.73;;;;;;;6.18;71.43;100732.05;125847;1098;104149;-77
2021/04/08 07:19:29;;;;;;;17.47;7.63;;;;;;;6.38;71.43;100721.04;125828;1099;104146;-76
2021/04/08 07:22:01;;;;;;;18.13;7.43;;;;;;;6.48;71.06;100723.36;125886;1099;104191;-77
2021/04/08 07:24:31;;;;;;;16.80;7.43;;;;;;;6.64;69.94;100724.21;125806;1099;104235;-77
2021/04/08 07:27:02;;;;;;;18.60;6.93;;;;;;;6.74;70.87;100730.82;125734;1099;104273;-78
2021/04/08 07:29:46;;;;;;;15.37;7.03;;;;;;;6.81;70.81;100736.45;125789;1099;105411;-77
2021/04/08 07:32:19;;;;;;;15.00;6.90;;;;;;;6.84;70.62;100728.80;125887;1099;104267;-77
2021/04/08 07:34:51;;;;;;;18.17;8.05;;;;;;;6.97;69.88;100735.56;125822;1099;104249;-77
2021/04/08 07:37:26;;;;;;;16.90;6.80;;;;;;;7.12;70.30;100738.11;125818;1099;104153;-78
2021/04/08 07:39:58;;;;;;;15.73;7.10;;;;;;;7.16;70.17;100737.44;125870;1099;104142;-78
2021/04/08 07:42:33;;;;;;;16.37;7.40;;;;;;;7.29;69.70;100744.23;125874;1099;108006;-76
2021/04/08 07:45:06;;;;;;;17.57;7.20;;;;;;;7.35;70.21;100748.86;125833;1097;104293;-75
2021/04/08 07:47:36;;;;;;;17.50;7.07;;;;;;;7.43;70.11;100757.98;125949;1099;104201;-74
2021/04/08 07:50:17;;;;;;;14.80;7.07;;;;;;;7.46;69.62;100757.25;125841;1096;104277;-74
2021/04/08 07:52:47;;;;;;;18.63;7.50;;;;;;;7.48;69.78;100750.39;126113;1096;119832;-74
2021/04/08 07:55:18;;;;;;;17.57;7.50;;;;;;;7.55;69.95;100750.78;125851;1096;104165;-75
2021/04/08 07:58:01;;;;;;;16.53;7.70;;;;;;;7.63;69.48;100743.34;125891;1096;104256;-76
2021/04/08 08:00:33;;;;;;;16.70;7.30;;;;;;;7.75;69.60;100732.64;125946;1096;104175;-76
2021/04/08 08:03:04;;;;;;;15.20;6.95;;;;;;;7.92;69.36;100738.72;125794;1099;106398;-76
2021/04/08 08:05:36;;;;;;;14.27;6.57;;;;;;;8.02;68.78;100747.91;125749;1099;104482;-76
2021/04/08 08:08:16;;;;;;;16.23;6.67;;;;;;;8.10;68.76;100763.16;125715;1099;104482;-76
2021/04/08 08:10:57;;;;;;;13.10;6.10;;;;;;;8.13;69.21;100762.40;125672;1099;104492;-75
2021/04/08 08:13:29;;;;;;;13.00;6.33;;;;;;;8.20;68.02;100763.63;126034;1099;111446;-76
2021/04/08 08:16:00;;;;;;;13.73;6.33;;;;;;;8.26;68.19;100759.58;125729;1099;104207;-76
2021/04/08 08:18:31;;;;;;;14.10;6.00;;;;;;;8.35;68.01;100763.46;125677;1099;104207;-76
2021/04/08 08:21:11;;;;;;;13.07;6.10;;;;;;;8.45;68.66;100769.25;125797;1099;104155;-76
2021/04/08 08:23:44;;;;;;;11.93;5.50;;;;;;;8.54;67.49;100774.04;125781;1099;104162;-76
2021/04/08 08:26:30;;;;;;;11.80;5.50;;;;;;;8.59;66.55;100751.60;125988;1099;104306;-76
2021/04/08 08:29:01;;;;;;;12.37;5.40;;;;;;;8.59;67.67;100755.95;126036;1099;104159;-76
2021/04/08 08:31:48;;;;;;;19.07;6.27;;;;;;;8.59;66.31;100769.03;125957;1099;104318;-76
2021/04/08 08:34:27;;;;;;;13.60;5.97;;;;;;;8.64;66.20;100764.91;125863;1099;107005;-76
2021/04/08 08:37:23;;;;;;;14.83;5.20;;;;;;;8.76;67.38;100773.34;125899;1099;104261;-77
2021/04/08 08:39:52;;;;;;;;;;;;;;;8.80;65.48;100783.14;126008;1099;104188;-76
2021/04/08 08:42:26;;;;;;;10.27;5.20;;;;;;;8.83;65.59;100781.48;126009;1099;104386;-76
2021/04/08 08:44:58;;;;;;;12.35;4.83;;;;;;;8.89;65.41;100779.16;125832;1099;104175;-76
2021/04/08 08:47:35;;;;;;;11.47;4.70;;;;;;;8.98;66.24;100777.84;125938;1099;104149;-79
2021/04/08 08:50:21;;;;;;;11.93;4.60;;;;;;;9.09;64.71;100777.46;125962;1099;104905;-77
2021/04/08 08:52:52;;;;;;;10.00;4.50;;;;;;;9.10;65.13;100776.61;126217;1099;104187;-78
2021/04/08 08:55:28;;;;;;;12.77;4.73;;;;;;;9.15;64.56;100769.89;126197;1099;104222;-78
2021/04/08 08:58:02;;;;;;;12.15;4.35;;;;;;;9.12;64.48;100774.98;125897;1099;104911;-78
2021/04/08 09:00:34;;;;;;;10.30;4.55;;;;;;;9.27;64.88;100780.00;125875;1099;104450;-78
2021/04/08 09:03:05;;;;;;;10.77;4.83;;;;;;;9.25;65.40;100779.94;125900;1099;104417;-77
2021/04/08 09:05:42;;;;;;;11.00;4.70;;;;;;;9.18;64.88;100786.63;125526;1099;104169;-77
2021/04/08 09:08:17;;;;;;;11.53;5.10;;;;;;;9.15;63.26;100801.31;125109;1099;104207;-79
2021/04/08 09:10:49;;;;;;;8.33;4.47;;;;;;;9.22;64.42;100800.74;125682;1099;104504;-80
2021/04/08 09:13:22;;;;;;;13.00;5.20;;;;;;;9.39;63.97;100795.39;125980;1099;104322;-78
2021/04/08 09:15:57;;;;;;;8.03;4.63;;;;;;;9.60;64.62;100791.12;125714;1099;105428;-78
2021/04/08 09:18:35;;;;;;;10.33;4.50;;;;;;;9.69;63.15;100796.77;125756;1099;104166;-78
2021/04/08 09:21:07;;;;;;;10.13;4.37;;;;;;;9.72;63.09;100795.98;125747;1099;104127;-77
2021/04/08 09:23:40;;;;;;;9.07;4.10;;;;;;;9.70;63.46;100797.65;125971;1099;104184;-78
2021/04/08 09:26:22;;;;;;;8.97;4.10;;;;;;;9.59;62.65;100794.55;125740;1099;104326;-77
2021/04/08 09:28:51;;;;;;;10.37;4.07;;;;;;;9.43;62.09;100792.98;125787;1099;104114;-79
2021/04/08 09:31:25;;;;;;;12.07;4.20;;;;;;;9.25;62.08;100797.38;125856;1099;104152;-78
2021/04/08 09:34:06;;;;;;;11.10;4.05;;;;;;;9.24;62.21;100798.20;125704;1099;104220;-79
2021/04/08 09:36:42;;;;;;;8.53;4.43;;;;;;;9.13;61.88;100797.70;125731;1099;118861;-79
2021/04/08 09:39:29;;;;;;;11.23;5.10;;;;;;;9.02;62.80;100796.31;126008;1099;104312;-77
2021/04/08 09:42:14;;;;;;;9.60;4.60;;;;;;;8.89;62.66;100794.86;125794;1099;104291;-78
2021/04/08 09:44:50;;;;;;;9.37;4.57;;;;;;;8.87;61.41;100801.74;126136;1099;102225;-78
2021/04/08 09:47:34;;;;;;;11.70;4.70;;;;;;;8.94;61.38;100790.72;125965;1099;104214;-78
2021/04/08 09:50:33;;;;;;;9.40;4.60;;;;;;;9.16;60.98;100796.14;125799;1099;104171;-78
2021/04/08 09:53:04;;;;;;;9.93;4.20;;;;;;;9.29;60.42;100779.26;125795;1099;104307;-78
2021/04/08 09:55:42;;;;;;;7.63;4.50;;;;;;;9.19;60.52;100769.19;125842;1099;104142;-77
2021/04/08 09:58:20;;;;;;;10.95;4.50;;;;;;;9.29;60.06;100776.64;125961;1099;104159;-77
2021/04/08 10:01:08;;;;;;;15.87;4.37;;;;;;;9.18;60.82;100776.16;125903;1099;104147;-77
2021/04/08 10:03:46;;;;;;;9.03;3.87;;;;;;;9.02;60.19;100772.76;125955;1099;102296;-77
2021/04/08 10:09:39;;;;;;;11.80;4.10;;;;;;;9.08;59.66;100773.04;125644;1099;104172;-76
2021/04/08 10:12:11;;;;;;;8.63;4.03;;;;;;;9.14;60.15;100779.45;125779;1099;104268;-77
2021/04/08 10:14:40;;;;;;;10.00;4.17;;;;;;;9.12;59.84;100774.98;125692;1099;102515;-78
2021/04/08 10:17:13;;;;;;;10.93;4.40;;;;;;;9.25;60.71;100766.84;125509;1098;104331;-77
2021/04/08 10:19:47;;;;;;;7.90;4.07;;;;;;;9.11;59.11;100781.04;125653;1099;104041;-77
2021/04/08 10:22:19;;;;;;;9.30;4.03;;;;;;;9.14;60.16;100783.80;125369;1099;104178;-79
2021/04/08 10:25:15;;;;;;;8.67;3.80;;;;;;;9.15;58.62;100782.98;125725;1099;104706;-80
2021/04/08 10:27:58;;;;;;;6.57;3.30;;;;;;;9.08;55.75;100773.04;126312;1099;106479;-81
2021/04/08 10:30:46;;;;;;;14.77;4.17;;;;;;;9.13;57.80;100771.52;126319;1099;102807;-78
2021/04/08 10:33:20;;;;;;;6.60;3.27;;;;;;;9.24;57.26;100762.45;125887;1099;104304;-78
2021/04/08 10:35:49;;;;;;;5.83;3.47;;;;;;;9.13;57.74;100777.67;125071;1099;104172;-77
2021/04/08 10:38:18;;;;;;;7.93;3.20;;;;;;;8.92;57.94;100787.14;124995;1102;104203;-77
2021/04/08 10:40:55;;;;;;;5.63;3.30;;;;;;;8.72;57.81;100778.35;125088;1102;104372;-77
2021/04/08 10:43:27;;;;;;;8.53;3.40;;;;;;;8.57;56.48;100779.42;125228;1102;104181;-79
2021/04/08 10:46:06;;;;;;;7.90;3.40;;;;;;;8.64;56.62;100778.87;125155;1102;102890;-76
2021/04/08 10:48:38;;;;;;;7.90;3.73;;;;;;;8.76;57.15;100777.69;125207;1102;103983;-77
2021/04/08 10:51:14;;;;;;;10.10;3.50;;;;;;;8.91;56.63;100787.96;125189;1102;104229;-77
2021/04/08 10:53:55;;;;;;;7.07;3.37;;;;;;;8.94;55.97;100783.78;125450;1102;103183;-79
2021/04/08 10:56:33;;;;;;;7.97;3.83;;;;;;;8.81;55.61;100792.76;125317;1102;104787;-77
2021/04/08 10:59:25;;;;;;;9.77;3.53;;;;;;;8.67;56.97;100792.94;125247;1102;102592;-76
2021/04/08 11:02:17;;;;;;;5.73;3.40;;;;;;;8.56;56.38;100788.08;125166;1099;104326;-77
2021/04/08 11:04:46;;;;;;;11.63;3.60;;;;;;;8.48;56.53;100792.05;125656;1099;104348;-77
2021/04/08 11:07:23;;;;;;;6.60;3.30;;;;;;;8.47;55.27;100787.62;125755;1099;104184;-78
2021/04/08 11:09:55;;;;;;;9.23;3.60;;;;;;;8.51;55.56;100786.05;125043;1099;119001;-76
2021/04/08 11:12:52;;;;;;;6.50;3.70;;;;;;;8.69;55.82;100786.94;125160;1099;104435;-77
2021/04/08 11:15:55;;;;;;;5.93;3.20;;;;;;;8.85;55.51;100785.05;125063;1102;104220;-78
2021/04/08 11:18:36;;;;;;;7.03;3.40;;;;;;;8.80;55.38;100790.98;125213;1099;104339;-76
2021/04/08 11:21:05;;;;;;;6.30;3.40;;;;;;;8.73;55.09;100780.16;125902;1099;104622;-76
2021/04/08 11:23:40;;;;;;;7.33;3.60;;;;;;;8.75;55.85;100791.58;125242;1099;104277;-76
2021/04/08 11:26:45;;;;;;;6.63;3.43;;;;;;;8.68;52.67;100795.63;125722;1099;104312;-76
2021/04/08 11:29:21;;;;;;;9.23;3.70;;;;;;;8.69;54.44;100791.28;125138;1099;104221;-76
2021/04/08 11:32:16;;;;;;;9.70;4.07;;;;;;;8.87;54.00;100775.58;125191;1099;104171;-75
2021/04/08 11:35:39;;;;;;;11.50;3.97;;;;;;;8.98;54.22;100775.23;125004;1102;104280;-76
2021/04/08 11:38:26;;;;;;;6.80;3.63;;;;;;;8.94;54.51;100775.02;125736;1099;104454;-77